Williamstown, MA (01267)

2:35 PM EST on December 22, 2014 (GMT -0500)
Mount Greylock Regional School District | Change Station
CLOSE
Current Station
Personal Weather Station
Location: Williamstown, MA
Elevation: 965 ft
Nearby Weather Stations

Elev 965 ft 42.67 °N, 73.24 °W | Updated 11 minutes ago

Overcast
Overcast
36.2 °F
Feels Like 32 °F
N
5.0
Wind Variable Wind from North
Gusts 6.0 mph

Today
High -- | Low -- °F
--% Chance of Precip.
Yesterday
High -- | Low -- °F
Precip. -- in
7:20 AM 4:22 PM
New Moon, 1% visible
Pressure 30.29 in
Visibility 10.0 miles
Clouds Overcast 4100 ft
Windchill 32 °F
Dew Point 31 °F
Humidity 82%
Rainfall 0.00 in
Snow Depth Not available.
UV 0.0 out of 12
Pollen .10 out of 12
Air Quality Not available.
Flu Activity Not available.
METAR KAQW 221852Z AUTO 09010KT 10SM OVC041 03/M01 A3027 RMK AO2 SLP257 T00281011

More Conditions Fewer Conditions

Pressure 30.29 in
Visibility 10.0 miles
Clouds Overcast 4100 ft
Windchill 32 °F
Dew Point 31 °F
Humidity 82%
Rainfall 0.00 in
Snow Depth Not available.
UV 0.0 out of 12
Pollen .10 out of 12
Air Quality Not available.
Flu Activity Not available.
METAR KAQW 221852Z AUTO 09010KT 10SM OVC041 03/M01 A3027 RMK AO2 SLP257 T00281011

More Conditions Fewer Conditions

10-Day Weather Forecast

Almanac

Astronomy

Dec. 22, 2014 Rise Set
Actual Time
Civil Twilight
Nautical Twilight
Astronomical Twilight
Moon
Length of Visible Light
Length of Day
Tomorrow will be .
, % of the Moon is Illuminated

Today's Extremes

State Highs State Lows

Community

WunderPhotos

Upload Photos

1,779,696 photos uploaded!

WunderBlogs® & News

Nearby

Air Quality

  Air Quality AQ Index Pollutant
Not available.

Snow Depth

Station Depth Elevation

Earthquake Activity

City Distance Mag. Time & Date
Minimum magnitude displayed is 2.5.

Coastal Water Temperatures

Place Temperature

Nearby Weather Stations